Startpagina
METAR-TAF:

METAR-TAF

Vliegvelden :

Rheine, Duitsland

breedte: 52-18N, lengte: 007-23E, hoogte: 40 m

Actueel weer

Dit bericht is 13 minuten geleden gemaakt, om 15:20 UTC
Wind 7 kt uit het oostzuidoosten
Temperatuur 20°C
Vochtigheid 60%
Druk 1007 hPa

METAR: ETHE 271520Z AUTO 11007KT //// // ////// 20/12 Q1007 ///

Tijdstip: 17:33 (15:33 UTC)

Verwachting

Dit bericht is 2 uur en het 42 minuten geleden gemaakt, om 12:51 UTC
Verwachting geldig van 27 om 11 UTC tot 27 om 20 UTC
Wind 8 kt uit het oostnoordoosten
Zicht 10 km of meer
Verspreide wolken op 10000 ft
Gebroken wolken op 18000 ft
Wijzigt naar
van 27 om 14 UTC tot 27 om 17 UTC
Wind 8 kt uit het oostnoordoosten
Zicht: 1300 m
Verspreide wolken op 4000 ft
Gebroken wolken op 8000 ft
lichte regen

TAF: ETHE 271251Z 2711/2720 07008KT 9999 NSW SCT100 BKN180 BECMG 2714/2717 07008KT 9999 -RA SCT040 BKN080 CANCEL 1300

Waarnemingen en weersverwachtingen van meer dan 4000 vliegvelden (METAR en TAF).

De beschikbare stations zijn de gele en rode punten op de kaart.

Ga met uw muis naar het station om de naam te zien.

Klik dan om waarnemingen en weersverwachtingen te zien.

kaart wijzigen: klik op de groene knoppen met een zwart kruis om in te zoomen, op de groene knop met een streepje om uit te zoomen of op de groene pijlen voor aangrenzende kaarten.


METAR-TAF: